createdAt,value
2018-05-10T00:00:53.954Z,0
2018-05-10T00:02:03.787Z,0
2018-05-10T00:03:13.869Z,0
2018-05-10T00:04:24.010Z,0
2018-05-10T00:05:33.846Z,0
2018-05-10T00:06:43.909Z,0
2018-05-10T00:07:54.054Z,0
2018-05-10T00:09:04.170Z,0
2018-05-10T00:10:14.041Z,0
2018-05-10T00:11:24.124Z,0
2018-05-10T00:12:34.207Z,0
2018-05-10T00:13:44.297Z,0
2018-05-10T00:14:54.137Z,0
2018-05-10T00:16:04.280Z,0
2018-05-10T00:17:14.355Z,0
2018-05-10T00:18:24.177Z,0
2018-05-10T00:19:34.268Z,0
2018-05-10T00:20:44.331Z,0
2018-05-10T00:21:54.193Z,0
2018-05-10T00:23:04.261Z,0
2018-05-10T00:24:14.349Z,0
2018-05-10T00:25:24.424Z,0
2018-05-10T00:26:34.585Z,0
2018-05-10T00:27:44.707Z,0
2018-05-10T00:28:54.805Z,0
2018-05-10T00:30:04.872Z,0
2018-05-10T00:31:14.692Z,0
2018-05-10T00:32:24.756Z,0
2018-05-10T00:33:34.876Z,0
2018-05-10T00:34:44.941Z,0
2018-05-10T00:35:55.031Z,0
2018-05-10T00:37:05.113Z,0
2018-05-10T00:38:14.922Z,0
2018-05-10T00:39:25.072Z,0
2018-05-10T00:40:34.883Z,0
2018-05-10T00:41:44.955Z,0
2018-05-10T00:42:55.019Z,0
2018-05-10T00:44:05.098Z,0
2018-05-10T00:45:15.228Z,0
2018-05-10T00:46:25.046Z,0
2018-05-10T00:47:34.864Z,0
2018-05-10T00:48:44.668Z,0
2018-05-10T00:49:54.740Z,0
2018-05-10T00:51:04.944Z,0
2018-05-10T00:52:14.791Z,0
2018-05-10T00:53:24.611Z,0
2018-05-10T00:54:34.417Z,0
2018-05-10T00:55:44.215Z,0
2018-05-10T00:56:54.343Z,0
2018-05-10T00:58:04.171Z,0
2018-05-10T00:59:14.237Z,0
2018-05-10T01:00:24.331Z,0
2018-05-10T01:01:34.418Z,0
2018-05-10T01:02:44.251Z,0
2018-05-10T01:03:54.059Z,0
2018-05-10T01:05:04.478Z,0
2018-05-10T01:06:14.552Z,0
2018-05-10T01:07:24.635Z,0
2018-05-10T01:08:34.233Z,0
2018-05-10T01:09:44.317Z,0
2018-05-10T01:10:54.409Z,0
2018-05-10T01:12:04.243Z,0
2018-05-10T01:13:14.326Z,0
2018-05-10T01:14:23.910Z,0
2018-05-10T01:15:33.725Z,0
2018-05-10T01:16:43.803Z,0
2018-05-10T01:17:53.627Z,0
2018-05-10T01:19:03.435Z,0
2018-05-10T01:20:13.306Z,0
2018-05-10T01:21:23.113Z,0
2018-05-10T01:22:32.905Z,0
2018-05-10T01:23:42.703Z,0
2018-05-10T01:24:52.777Z,0
2018-05-10T01:26:02.656Z,0
2018-05-10T01:27:12.480Z,0
2018-05-10T01:28:22.561Z,0
2018-05-10T01:29:32.671Z,0
2018-05-10T01:30:42.489Z,0
2018-05-10T01:31:52.620Z,0
2018-05-10T01:33:02.707Z,0
2018-05-10T01:34:12.266Z,0
2018-05-10T01:35:22.088Z,0
2018-05-10T01:36:32.179Z,0
2018-05-10T01:37:42.257Z,0
2018-05-10T01:38:51.817Z,0
2018-05-10T01:40:01.644Z,0
2018-05-10T01:41:11.713Z,0
2018-05-10T01:42:21.523Z,0
2018-05-10T01:43:31.650Z,0
2018-05-10T01:44:41.488Z,0
2018-05-10T01:45:51.314Z,0
2018-05-10T01:47:01.126Z,0
2018-05-10T01:48:11.186Z,0
2018-05-10T01:49:21.250Z,0
2018-05-10T01:50:31.071Z,0
2018-05-10T01:51:41.210Z,0
2018-05-10T01:52:51.305Z,0
2018-05-10T01:54:01.384Z,0
2018-05-10T01:55:11.189Z,0
2018-05-10T01:56:20.742Z,0
2018-05-10T01:57:30.561Z,0
2018-05-10T01:58:40.366Z,0
2018-05-10T01:59:50.171Z,0
2018-05-10T02:01:00.293Z,0
2018-05-10T02:02:10.126Z,0
2018-05-10T02:03:19.933Z,0
2018-05-10T02:04:29.997Z,0
2018-05-10T02:05:40.063Z,0
2018-05-10T02:06:50.135Z,0
2018-05-10T02:08:00.217Z,0
2018-05-10T02:09:10.038Z,0
2018-05-10T02:10:19.936Z,0
2018-05-10T02:11:29.761Z,0
2018-05-10T02:12:39.850Z,0
2018-05-10T02:13:49.686Z,0
2018-05-10T02:14:59.928Z,0
2018-05-10T02:16:10.004Z,0
2018-05-10T02:17:19.816Z,0
2018-05-10T02:18:29.949Z,0
2018-05-10T02:19:40.050Z,0
2018-05-10T02:20:50.140Z,0
2018-05-10T02:22:00.215Z,0
2018-05-10T02:23:10.015Z,0
2018-05-10T02:24:19.811Z,0
2018-05-10T02:25:29.882Z,0
2018-05-10T02:26:39.952Z,0
2018-05-10T02:27:50.033Z,0
2018-05-10T02:29:00.114Z,0
2018-05-10T02:30:10.268Z,0
2018-05-10T02:31:20.116Z,0
2018-05-10T02:32:30.184Z,0
2018-05-10T02:33:40.015Z,0
2018-05-10T02:34:50.080Z,0
2018-05-10T02:35:59.895Z,0
2018-05-10T02:37:10.073Z,0
2018-05-10T02:38:20.152Z,0
2018-05-10T02:39:29.985Z,0
2018-05-10T02:40:39.790Z,0
2018-05-10T02:41:49.664Z,0
2018-05-10T02:42:59.761Z,0
2018-05-10T02:44:09.901Z,0
2018-05-10T02:45:20.001Z,0
2018-05-10T02:46:30.081Z,0
2018-05-10T02:47:40.215Z,0
2018-05-10T02:48:50.325Z,0
2018-05-10T02:50:00.413Z,0
2018-05-10T02:51:10.249Z,0
2018-05-10T02:52:20.340Z,0
2018-05-10T02:53:30.427Z,0
2018-05-10T02:54:40.517Z,0
2018-05-10T02:55:52.449Z,0
2018-05-10T02:57:02.550Z,0
2018-05-10T02:58:12.360Z,0
2018-05-10T02:59:22.439Z,0
2018-05-10T03:00:32.529Z,0
2018-05-10T03:01:42.618Z,0
2018-05-10T03:34:25.835Z,15
2018-05-10T03:35:35.914Z,20
2018-05-10T03:36:45.976Z,20
2018-05-10T03:37:55.777Z,20
2018-05-10T03:39:05.842Z,20
2018-05-10T03:40:15.663Z,25
2018-05-10T03:41:25.744Z,25
2018-05-10T03:42:35.823Z,30
2018-05-10T03:43:45.889Z,30
2018-05-10T03:44:56.061Z,30
2018-05-10T03:46:06.180Z,30
2018-05-10T03:47:16.265Z,30
2018-05-10T03:48:26.327Z,30
2018-05-10T03:49:36.413Z,35
2018-05-10T03:50:46.210Z,35
2018-05-10T03:51:56.056Z,35
2018-05-10T03:53:05.864Z,35
2018-05-10T03:54:15.921Z,40
2018-05-10T03:55:25.732Z,40
2018-05-10T03:56:35.571Z,40
2018-05-10T03:57:45.652Z,45
2018-05-10T03:58:55.742Z,45
2018-05-10T04:00:05.836Z,45
2018-05-10T04:01:15.940Z,50
2018-05-10T04:02:26.016Z,50
2018-05-10T04:03:36.108Z,50
2018-05-10T04:04:45.933Z,50
2018-05-10T04:05:56.066Z,50
2018-05-10T04:07:05.882Z,55
2018-05-10T04:08:15.957Z,55
2018-05-10T04:09:26.108Z,60
2018-05-10T04:10:36.203Z,60
2018-05-10T04:11:46.275Z,65
2018-05-10T04:12:56.362Z,65
2018-05-10T04:14:06.429Z,65
2018-05-10T04:15:16.236Z,65
2018-05-10T04:16:26.048Z,70
2018-05-10T04:17:36.115Z,75
2018-05-10T04:18:45.659Z,100
2018-05-10T04:19:55.719Z,130
2018-05-10T04:21:05.844Z,155
2018-05-10T04:22:15.939Z,175
2018-05-10T04:23:25.579Z,170
2018-05-10T04:24:35.659Z,160
2018-05-10T04:25:45.461Z,165
2018-05-10T04:26:55.543Z,145
2018-05-10T04:28:05.665Z,125
2018-05-10T04:29:15.744Z,120
2018-05-10T04:30:25.277Z,105
2018-05-10T04:31:35.349Z,100
2018-05-10T04:32:45.425Z,105
2018-05-10T04:33:55.490Z,125
2018-05-10T04:35:05.295Z,150
2018-05-10T04:36:15.377Z,160
2018-05-10T04:37:25.430Z,125
2018-05-10T04:38:35.517Z,115
2018-05-10T04:39:45.584Z,115
2018-05-10T04:40:55.664Z,120
2018-05-10T04:42:05.745Z,130
2018-05-10T04:43:15.567Z,150
2018-05-10T04:44:25.497Z,170
2018-05-10T04:45:35.557Z,170
2018-05-10T04:46:45.452Z,175
2018-05-10T04:47:55.541Z,200
2018-05-10T04:49:05.642Z,200
2018-05-10T04:50:15.744Z,215
2018-05-10T04:51:25.825Z,220
2018-05-10T04:52:35.903Z,225
2018-05-10T04:53:46.010Z,220
2018-05-10T04:54:56.175Z,230
2018-05-10T04:56:06.262Z,240
2018-05-10T04:57:16.337Z,260
2018-05-10T04:58:26.144Z,250
2018-05-10T04:59:36.221Z,240
2018-05-10T05:00:46.329Z,250
2018-05-10T05:01:56.405Z,280
2018-05-10T05:03:06.211Z,300
2018-05-10T05:04:16.014Z,300
2018-05-10T05:05:26.080Z,315
2018-05-10T05:06:36.149Z,305
2018-05-10T05:07:46.400Z,310
2018-05-10T05:08:56.781Z,315
2018-05-10T05:10:06.875Z,315
2018-05-10T05:11:16.947Z,315
2018-05-10T05:12:27.064Z,310
2018-05-10T05:13:37.193Z,310
2018-05-10T05:14:47.011Z,320
2018-05-10T05:15:57.107Z,305
2018-05-10T05:17:07.197Z,295
2018-05-10T05:18:17.290Z,300
2018-05-10T05:19:27.362Z,290
2018-05-10T05:20:37.441Z,295
2018-05-10T05:21:47.620Z,305
2018-05-10T05:22:57.426Z,295
2018-05-10T05:24:07.259Z,300
2018-05-10T05:25:17.136Z,300
2018-05-10T05:26:26.950Z,300
2018-05-10T05:27:37.026Z,290
2018-05-10T05:28:47.122Z,275
2018-05-10T05:29:57.253Z,170
2018-05-10T05:31:07.337Z,150
2018-05-10T05:32:17.413Z,135
2018-05-10T05:33:27.267Z,125
2018-05-10T05:34:37.163Z,115
2018-05-10T05:35:47.419Z,115
2018-05-10T05:36:57.543Z,110
2018-05-10T05:38:07.614Z,115
2018-05-10T05:39:17.197Z,115
2018-05-10T05:40:27.314Z,115
2018-05-10T05:41:37.580Z,115
2018-05-10T05:42:47.721Z,120
2018-05-10T05:43:57.809Z,125
2018-05-10T05:45:07.898Z,130
2018-05-10T05:46:17.996Z,130
2018-05-10T05:47:27.827Z,130
2018-05-10T05:48:37.902Z,125
2018-05-10T05:49:47.722Z,125
2018-05-10T05:50:57.800Z,125
2018-05-10T05:52:07.871Z,130
2018-05-10T05:53:17.957Z,135
2018-05-10T05:54:27.843Z,145
2018-05-10T05:55:37.920Z,150
2018-05-10T05:56:47.752Z,165
2018-05-10T05:57:57.828Z,180
2018-05-10T05:59:07.920Z,190
2018-05-10T06:00:18.100Z,200
2018-05-10T06:01:27.910Z,200
2018-05-10T06:02:37.727Z,205
2018-05-10T06:03:47.894Z,210
2018-05-10T06:04:57.981Z,215
2018-05-10T06:06:07.817Z,215
2018-05-10T06:07:17.888Z,210
2018-05-10T06:08:27.699Z,205
2018-05-10T06:09:37.790Z,205
2018-05-10T06:10:47.855Z,210
2018-05-10T06:11:57.966Z,235
2018-05-10T06:13:08.065Z,245
2018-05-10T06:14:17.886Z,240
2018-05-10T06:15:28.216Z,250
2018-05-10T06:16:38.308Z,245
2018-05-10T06:17:48.420Z,250
2018-05-10T06:18:57.980Z,250
2018-05-10T06:20:08.066Z,255
2018-05-10T06:21:18.137Z,260
2018-05-10T06:22:27.968Z,265
2018-05-10T06:23:38.066Z,265
2018-05-10T06:24:48.229Z,265
2018-05-10T06:25:58.334Z,260
2018-05-10T06:27:08.446Z,250
2018-05-10T06:28:18.531Z,230
2018-05-10T06:29:28.130Z,220
2018-05-10T06:30:37.956Z,215
2018-05-10T06:31:48.050Z,220
2018-05-10T06:32:57.870Z,215
2018-05-10T06:34:07.558Z,210
2018-05-10T06:35:17.508Z,200
2018-05-10T06:36:27.062Z,195
2018-05-10T06:37:36.875Z,190
2018-05-10T06:38:46.960Z,185
2018-05-10T06:39:57.051Z,190
2018-05-10T06:41:07.154Z,185
2018-05-10T06:42:16.983Z,185
2018-05-10T06:43:27.086Z,195
2018-05-10T06:44:37.174Z,195
2018-05-10T06:45:47.281Z,195
2018-05-10T06:46:58.014Z,190
2018-05-10T06:48:08.204Z,190
2018-05-10T06:49:18.289Z,185
2018-05-10T06:50:28.392Z,190
2018-05-10T06:51:37.954Z,195
2018-05-10T06:52:47.835Z,210
2018-05-10T06:53:57.394Z,220
2018-05-10T06:55:07.483Z,230
2018-05-10T06:56:17.575Z,240
2018-05-10T06:57:27.653Z,240
2018-05-10T06:58:37.530Z,240
2018-05-10T06:59:47.348Z,230
2018-05-10T07:00:57.437Z,230
2018-05-10T07:02:07.254Z,240
2018-05-10T07:03:17.448Z,235
2018-05-10T07:04:27.651Z,245
2018-05-10T07:05:37.730Z,255
2018-05-10T07:06:47.836Z,255
2018-05-10T07:07:57.907Z,265
2018-05-10T07:09:07.739Z,265
2018-05-10T07:10:17.837Z,265
2018-05-10T07:11:27.925Z,265
2018-05-10T07:12:37.220Z,260
2018-05-10T07:13:47.058Z,255
2018-05-10T07:14:57.137Z,255
2018-05-10T07:16:06.952Z,250
2018-05-10T07:17:16.773Z,250
2018-05-10T07:18:26.859Z,260
2018-05-10T07:19:36.934Z,265
2018-05-10T07:20:47.026Z,265
2018-05-10T07:21:57.122Z,290
2018-05-10T07:23:06.950Z,285
2018-05-10T07:24:16.768Z,300
2018-05-10T07:25:27.601Z,285
2018-05-10T07:26:37.152Z,285
2018-05-10T07:27:47.243Z,270
2018-05-10T07:28:57.051Z,265
2018-05-10T07:30:07.136Z,255
2018-05-10T07:31:16.948Z,250
2018-05-10T07:32:26.538Z,250
2018-05-10T07:33:36.617Z,245
2018-05-10T07:34:46.445Z,245
2018-05-10T07:35:56.526Z,240
2018-05-10T07:37:06.117Z,240
2018-05-10T07:38:16.235Z,240
2018-05-10T07:39:26.328Z,235
2018-05-10T07:40:35.881Z,225
2018-05-10T07:41:45.970Z,225
2018-05-10T07:42:55.794Z,215
2018-05-10T07:44:05.898Z,210
2018-05-10T07:45:16.102Z,205
2018-05-10T07:46:26.282Z,200
2018-05-10T07:47:36.467Z,205
2018-05-10T07:48:46.593Z,200
2018-05-10T07:49:56.680Z,200
2018-05-10T07:51:06.511Z,200
2018-05-10T07:52:16.594Z,200
2018-05-10T07:53:26.875Z,205
2018-05-10T07:54:36.969Z,200
2018-05-10T07:55:47.055Z,200
2018-05-10T07:56:56.883Z,200
2018-05-10T07:58:06.985Z,200
2018-05-10T07:59:16.839Z,200
2018-05-10T08:00:26.922Z,200
2018-05-10T08:01:37.109Z,200
2018-05-10T08:02:46.683Z,200
2018-05-10T08:03:56.769Z,200
2018-05-10T08:05:06.613Z,200
2018-05-10T08:06:16.425Z,200
2018-05-10T08:07:26.551Z,200
2018-05-10T08:08:36.670Z,200
2018-05-10T08:09:46.499Z,200
2018-05-10T08:10:56.579Z,200
2018-05-10T08:12:06.405Z,200
2018-05-10T08:13:16.227Z,200
2018-05-10T08:14:26.317Z,200
2018-05-10T08:15:35.862Z,200
2018-05-10T08:16:45.943Z,205
2018-05-10T08:17:56.032Z,200
2018-05-10T08:19:06.109Z,205
2018-05-10T08:20:16.207Z,205
2018-05-10T08:21:26.296Z,205
2018-05-10T08:22:36.196Z,205
2018-05-10T08:23:46.299Z,205
2018-05-10T08:24:56.119Z,205
2018-05-10T08:26:06.228Z,205
2018-05-10T08:27:16.307Z,205
2018-05-10T08:28:26.463Z,205
2018-05-10T08:29:36.565Z,205
2018-05-10T08:30:46.691Z,205
2018-05-10T08:31:56.521Z,205
2018-05-10T08:33:06.610Z,205
2018-05-10T08:34:16.779Z,210
2018-05-10T08:35:26.590Z,205
2018-05-10T08:36:37.090Z,205
2018-05-10T08:37:47.207Z,205
2018-05-10T08:38:57.280Z,210
2018-05-10T08:40:07.409Z,205
2018-05-10T08:41:17.231Z,210
2018-05-10T08:42:27.309Z,210
2018-05-10T08:43:37.141Z,215
2018-05-10T08:44:46.979Z,210
2018-05-10T08:45:57.078Z,210
2018-05-10T08:47:07.160Z,210
2018-05-10T08:48:16.990Z,210
2018-05-10T08:49:26.805Z,205
2018-05-10T08:50:36.891Z,205
2018-05-10T08:51:47.330Z,205
2018-05-10T08:52:57.458Z,205
2018-05-10T08:54:07.788Z,205
2018-05-10T08:55:17.639Z,205
2018-05-10T08:56:27.450Z,205
2018-05-10T08:57:37.591Z,205
2018-05-10T08:58:47.424Z,205
2018-05-10T08:59:57.395Z,205
2018-05-10T09:01:07.489Z,205
2018-05-10T09:02:17.324Z,205
2018-05-10T09:03:27.407Z,205
2018-05-10T09:04:37.493Z,205
2018-05-10T09:05:47.584Z,205
2018-05-10T09:06:57.691Z,205
2018-05-10T09:08:07.793Z,205
2018-05-10T09:09:17.605Z,205
2018-05-10T09:10:27.723Z,205
2018-05-10T09:11:37.842Z,210
2018-05-10T09:12:47.682Z,215
2018-05-10T09:13:57.517Z,210
2018-05-10T09:15:07.657Z,210
2018-05-10T09:16:17.740Z,210
2018-05-10T09:17:27.570Z,210
2018-05-10T09:18:37.656Z,205
2018-05-10T09:19:47.475Z,205
2018-05-10T09:20:57.576Z,210
2018-05-10T09:22:07.658Z,210
2018-05-10T09:23:17.215Z,210
2018-05-10T09:24:27.311Z,210
2018-05-10T09:25:37.145Z,210
2018-05-10T09:26:46.772Z,210
2018-05-10T09:27:56.843Z,210
2018-05-10T09:29:06.940Z,210
2018-05-10T09:30:17.027Z,210
2018-05-10T09:31:27.119Z,210
2018-05-10T09:32:37.021Z,210
2018-05-10T09:33:47.244Z,210
2018-05-10T09:34:57.341Z,210
2018-05-10T09:36:07.155Z,210
2018-05-10T09:37:16.989Z,210
2018-05-10T09:38:27.201Z,210
2018-05-10T09:39:37.767Z,210
2018-05-10T09:40:47.895Z,210
2018-05-10T09:41:57.716Z,210
2018-05-10T09:43:07.852Z,210
2018-05-10T09:44:18.049Z,210
2018-05-10T09:45:27.883Z,205
2018-05-10T09:46:37.970Z,210
2018-05-10T09:47:48.078Z,210
2018-05-10T09:48:58.170Z,210
2018-05-10T09:50:08.249Z,210
2018-05-10T09:51:18.322Z,210
2018-05-10T09:52:28.397Z,210
2018-05-10T09:53:38.227Z,210
2018-05-10T09:54:48.307Z,210
2018-05-10T09:55:58.397Z,210
2018-05-10T09:57:08.487Z,210
2018-05-10T09:58:18.562Z,210
2018-05-10T09:59:28.677Z,210
2018-05-10T10:00:38.770Z,210
2018-05-10T10:01:48.932Z,210
2018-05-10T10:02:58.770Z,210
2018-05-10T10:04:08.870Z,215
2018-05-10T10:05:18.993Z,210
2018-05-10T10:06:29.161Z,210
2018-05-10T10:07:39.241Z,215
2018-05-10T10:08:49.348Z,215
2018-05-10T10:09:59.474Z,215
2018-05-10T10:11:09.339Z,215
2018-05-10T10:12:19.447Z,215
2018-05-10T10:13:29.274Z,215
2018-05-10T10:14:39.101Z,215
2018-05-10T10:15:48.933Z,215
2018-05-10T10:16:59.150Z,215
2018-05-10T10:18:09.244Z,215
2018-05-10T10:19:19.339Z,215
2018-05-10T10:20:29.437Z,215
2018-05-10T10:21:39.293Z,220
2018-05-10T10:22:48.857Z,220
2018-05-10T10:23:58.701Z,220
2018-05-10T10:25:08.560Z,220
2018-05-10T10:26:20.741Z,215
2018-05-10T10:27:31.378Z,215
2018-05-10T10:28:41.463Z,220
2018-05-10T10:29:51.550Z,225
2018-05-10T10:31:01.704Z,220
2018-05-10T10:32:11.788Z,220
2018-05-10T10:33:22.681Z,220
2018-05-10T10:34:33.874Z,220
2018-05-10T10:35:44.873Z,195
2018-05-10T10:36:56.080Z,225
2018-05-10T10:38:07.557Z,230
2018-05-10T10:39:18.233Z,230
2018-05-10T10:40:28.340Z,235
2018-05-10T10:41:38.188Z,230
2018-05-10T10:42:48.300Z,230
2018-05-10T10:43:58.574Z,230
2018-05-10T10:45:08.684Z,230
2018-05-10T10:46:18.529Z,230
2018-05-10T10:47:28.719Z,235
2018-05-10T10:48:38.849Z,235
2018-05-10T10:49:48.744Z,240
2018-05-10T10:50:58.589Z,240
2018-05-10T10:52:08.732Z,240
2018-05-10T10:53:19.048Z,240
2018-05-10T10:54:29.426Z,240
2018-05-10T10:55:39.776Z,240
2018-05-10T10:56:50.133Z,240
2018-05-10T10:58:00.232Z,240
2018-05-10T10:59:10.413Z,235
2018-05-10T11:00:20.494Z,240
2018-05-10T11:01:30.592Z,235
2018-05-10T11:02:40.717Z,235
2018-05-10T11:03:50.611Z,235
2018-05-10T11:05:00.935Z,240
2018-05-10T11:06:11.048Z,240
2018-05-10T11:07:20.872Z,240
2018-05-10T11:08:31.238Z,210
2018-05-10T11:09:41.610Z,205
2018-05-10T11:10:52.481Z,205
2018-05-10T11:12:02.826Z,220
2018-05-10T11:13:13.443Z,205
2018-05-10T11:14:24.048Z,195
2018-05-10T11:15:34.679Z,195
2018-05-10T11:16:44.927Z,190
2018-05-10T11:17:55.524Z,180
2018-05-10T11:19:05.884Z,175
2018-05-10T11:20:15.990Z,175
2018-05-10T11:21:26.145Z,160
2018-05-10T11:22:37.607Z,155
2018-05-10T11:23:48.107Z,155
2018-05-10T11:24:58.480Z,155
2018-05-10T11:26:08.595Z,165
2018-05-10T11:27:18.916Z,160
2018-05-10T11:28:29.023Z,160
2018-05-10T11:29:39.114Z,160
2018-05-10T11:30:48.944Z,165
2018-05-10T11:31:58.794Z,175
2018-05-10T11:33:09.100Z,185
2018-05-10T11:34:19.271Z,210
2018-05-10T11:35:29.386Z,225
2018-05-10T11:36:39.487Z,255
2018-05-10T11:37:49.661Z,270
2018-05-10T11:38:59.539Z,265
2018-05-10T11:40:09.371Z,260
2018-05-10T11:41:19.219Z,265
2018-05-10T11:42:28.803Z,265
2018-05-10T11:43:38.644Z,275
2018-05-10T11:44:48.494Z,280
2018-05-10T11:45:58.353Z,300
2018-05-10T11:47:08.198Z,295
2018-05-10T11:48:18.049Z,295
2018-05-10T11:49:27.974Z,310
2018-05-10T11:50:37.814Z,315
2018-05-10T11:51:47.969Z,325
2018-05-10T11:52:58.108Z,335
2018-05-10T11:54:08.230Z,325
2018-05-10T11:55:18.353Z,320
2018-05-10T11:56:28.183Z,310
2018-05-10T11:57:38.344Z,305
2018-05-10T11:58:48.442Z,295
2018-05-10T11:59:58.550Z,255
2018-05-10T12:01:08.667Z,235
2018-05-10T12:02:18.801Z,225
2018-05-10T12:03:28.896Z,195
2018-05-10T12:04:39.040Z,260
2018-05-10T12:05:49.137Z,205
2018-05-10T12:06:59.254Z,190
2018-05-10T12:08:09.092Z,180
2018-05-10T12:09:19.243Z,175
2018-05-10T12:10:29.574Z,180
2018-05-10T12:11:39.664Z,190
2018-05-10T12:12:49.767Z,205
2018-05-10T12:13:59.893Z,235
2018-05-10T12:15:10.019Z,250
2018-05-10T12:16:19.840Z,235
2018-05-10T12:17:29.946Z,195
2018-05-10T12:18:40.050Z,195
2018-05-10T12:19:49.903Z,185
2018-05-10T12:20:59.803Z,190
2018-05-10T12:22:09.959Z,180
2018-05-10T12:23:20.073Z,180
2018-05-10T12:24:29.640Z,185
2018-05-10T12:25:39.840Z,195
2018-05-10T12:26:49.982Z,230
2018-05-10T12:28:00.095Z,240
2018-05-10T12:29:10.213Z,245
2018-05-10T12:30:20.349Z,265
2018-05-10T12:31:30.455Z,265
2018-05-10T12:32:40.558Z,260
2018-05-10T12:33:50.669Z,260
2018-05-10T12:35:00.529Z,250
2018-05-10T12:36:10.388Z,225
2018-05-10T12:37:20.495Z,220
2018-05-10T12:38:30.615Z,225
2018-05-10T12:39:40.207Z,230
2018-05-10T12:40:50.065Z,260
2018-05-10T12:42:00.187Z,250
2018-05-10T12:43:10.159Z,255
2018-05-10T12:44:20.051Z,270
2018-05-10T12:45:30.154Z,285
2018-05-10T12:46:40.248Z,280
2018-05-10T12:47:50.622Z,295
2018-05-10T12:49:00.483Z,290
2018-05-10T12:50:10.563Z,300
2018-05-10T12:51:20.657Z,310
2018-05-10T12:52:30.751Z,270
2018-05-10T12:53:40.843Z,300
2018-05-10T12:54:50.923Z,310
2018-05-10T12:56:00.818Z,290
2018-05-10T12:57:10.927Z,250
2018-05-10T12:58:20.764Z,240
2018-05-10T12:59:30.588Z,235
2018-05-10T13:00:40.438Z,235
2018-05-10T13:01:50.537Z,230
2018-05-10T13:03:00.689Z,225
2018-05-10T13:04:10.781Z,205
2018-05-10T13:05:20.866Z,195
2018-05-10T13:06:30.970Z,190
2018-05-10T13:07:40.786Z,185
2018-05-10T13:08:50.876Z,190
2018-05-10T13:10:00.970Z,200
2018-05-10T13:11:11.688Z,210
2018-05-10T13:12:21.843Z,215
2018-05-10T13:13:32.251Z,230
2018-05-10T13:14:42.367Z,240
2018-05-10T13:15:52.190Z,240
2018-05-10T13:17:02.275Z,250
2018-05-10T13:18:12.119Z,255
2018-05-10T13:19:22.360Z,270
2018-05-10T13:20:32.451Z,270
2018-05-10T13:21:42.735Z,280
2018-05-10T13:22:52.826Z,290
2018-05-10T13:24:02.941Z,305
2018-05-10T13:25:13.049Z,300
2018-05-10T13:26:23.136Z,300
2018-05-10T13:27:33.551Z,305
2018-05-10T13:28:43.667Z,295
2018-05-10T13:29:53.769Z,290
2018-05-10T13:31:03.592Z,290
2018-05-10T13:32:13.421Z,290
2018-05-10T13:33:23.224Z,300
2018-05-10T13:34:33.312Z,295
2018-05-10T13:35:42.623Z,290
2018-05-10T13:36:52.465Z,290
2018-05-10T13:38:02.049Z,290
2018-05-10T13:39:11.867Z,290
2018-05-10T13:40:21.698Z,290
2018-05-10T13:41:31.266Z,290
2018-05-10T13:42:41.362Z,290
2018-05-10T13:43:51.207Z,300
2018-05-10T13:45:01.300Z,300
2018-05-10T13:46:11.396Z,290
2018-05-10T13:47:21.772Z,290
2018-05-10T13:48:31.879Z,305
2018-05-10T13:49:41.979Z,330
2018-05-10T13:50:51.802Z,325
2018-05-10T13:52:01.912Z,330
2018-05-10T13:53:12.332Z,325
2018-05-10T13:54:22.206Z,320
2018-05-10T13:55:32.031Z,320
2018-05-10T13:56:41.863Z,320
2018-05-10T13:57:51.983Z,320
2018-05-10T13:59:02.331Z,310
2018-05-10T14:00:12.487Z,305
2018-05-10T14:01:22.589Z,305
2018-05-10T14:02:32.771Z,295
2018-05-10T14:03:42.887Z,290
2018-05-10T14:04:52.984Z,290
2018-05-10T14:06:02.898Z,265
2018-05-10T14:07:12.725Z,285
2018-05-10T14:08:22.850Z,285
2018-05-10T14:09:32.437Z,285
2018-05-10T14:10:42.547Z,280
2018-05-10T14:11:52.431Z,275
2018-05-10T14:13:02.260Z,275
2018-05-10T14:14:11.853Z,270
2018-05-10T14:15:21.969Z,255
2018-05-10T14:16:32.015Z,195
2018-05-10T14:17:41.850Z,195
2018-05-10T14:18:51.672Z,260
2018-05-10T14:20:01.773Z,255
2018-05-10T14:21:11.599Z,250
2018-05-10T14:22:21.681Z,180
2018-05-10T14:23:31.280Z,185
2018-05-10T14:24:41.394Z,250
2018-05-10T14:25:51.486Z,245
2018-05-10T14:27:01.594Z,245
2018-05-10T14:28:11.706Z,250
2018-05-10T14:29:21.825Z,245
2018-05-10T14:30:32.268Z,245
2018-05-10T14:31:42.366Z,240
2018-05-10T14:32:52.335Z,235
2018-05-10T14:34:02.504Z,235
2018-05-10T14:35:12.639Z,230
2018-05-10T14:36:22.546Z,225
2018-05-10T14:37:32.634Z,220
2018-05-10T14:38:42.769Z,220
2018-05-10T14:39:52.870Z,220
2018-05-10T14:41:02.695Z,215
2018-05-10T14:42:12.795Z,210
2018-05-10T14:43:22.889Z,210
2018-05-10T14:44:33.004Z,135
2018-05-10T14:45:42.839Z,125
2018-05-10T14:46:53.108Z,120
2018-05-10T14:48:02.973Z,120
2018-05-10T14:49:13.086Z,120
2018-05-10T14:50:23.216Z,120
2018-05-10T14:51:33.397Z,120
2018-05-10T14:52:43.285Z,120
2018-05-10T14:53:53.365Z,120
2018-05-10T14:55:03.462Z,135
2018-05-10T14:56:13.633Z,185
2018-05-10T14:57:23.736Z,135
2018-05-10T14:58:33.875Z,190
2018-05-10T14:59:43.896Z,185
2018-05-10T15:00:54.010Z,185
2018-05-10T15:02:04.111Z,190
2018-05-10T15:03:14.223Z,190
2018-05-10T15:04:24.333Z,190
2018-05-10T15:05:34.438Z,190
2018-05-10T15:06:44.556Z,190
2018-05-10T15:07:54.663Z,190
2018-05-10T15:09:04.770Z,190
2018-05-10T15:10:14.871Z,190
2018-05-10T15:11:24.960Z,190
2018-05-10T15:12:34.788Z,190
2018-05-10T15:13:44.883Z,185
2018-05-10T15:14:54.983Z,185
2018-05-10T15:16:04.867Z,185
2018-05-10T15:17:14.971Z,185
2018-05-10T15:18:25.076Z,190
2018-05-10T15:19:34.895Z,190
2018-05-10T15:20:44.982Z,145
2018-05-10T15:21:55.102Z,145
2018-05-10T15:23:05.204Z,140
2018-05-10T15:24:15.380Z,145
2018-05-10T15:25:25.496Z,140
2018-05-10T15:26:35.598Z,145
2018-05-10T15:27:45.776Z,150
2018-05-10T15:28:55.877Z,165
2018-05-10T15:30:06.002Z,165
2018-05-10T15:31:16.118Z,150
2018-05-10T15:32:26.233Z,145
2018-05-10T15:33:36.411Z,145
2018-05-10T15:34:46.494Z,150
2018-05-10T15:35:56.589Z,150
2018-05-10T15:37:06.692Z,160
2018-05-10T15:38:16.809Z,155
2018-05-10T15:39:26.898Z,160
2018-05-10T15:40:36.999Z,160
2018-05-10T15:41:47.116Z,160
2018-05-10T15:42:57.226Z,165
2018-05-10T15:44:07.085Z,160
2018-05-10T15:45:17.233Z,160
2018-05-10T15:46:27.342Z,160
2018-05-10T15:47:37.456Z,185
2018-05-10T15:48:47.632Z,190
2018-05-10T15:49:57.740Z,190
2018-05-10T15:51:07.869Z,175
2018-05-10T15:52:18.067Z,160
2018-05-10T15:53:28.199Z,155
2018-05-10T15:54:38.283Z,155
2018-05-10T15:55:48.417Z,150
2018-05-10T15:56:58.349Z,155
2018-05-10T15:58:08.204Z,160
2018-05-10T15:59:18.343Z,175
2018-05-10T16:00:28.433Z,185
2018-05-10T16:01:38.537Z,190
2018-05-10T16:02:48.670Z,185
2018-05-10T16:03:58.757Z,180
2018-05-10T16:05:08.864Z,175
2018-05-10T16:06:18.951Z,175
2018-05-10T16:07:29.064Z,175
2018-05-10T16:08:39.246Z,165
2018-05-10T16:09:49.341Z,165
2018-05-10T16:10:59.431Z,165
2018-05-10T16:12:09.542Z,165
2018-05-10T16:13:19.634Z,160
2018-05-10T16:14:29.755Z,155
2018-05-10T16:15:39.860Z,150
2018-05-10T16:16:49.959Z,150
2018-05-10T16:18:00.075Z,140
2018-05-10T16:19:09.922Z,130
2018-05-10T16:20:20.054Z,125
2018-05-10T16:21:29.905Z,125
2018-05-10T16:22:40.024Z,115
2018-05-10T16:23:50.173Z,100
2018-05-10T16:25:00.270Z,90
2018-05-10T16:26:10.458Z,85
2018-05-10T16:27:20.586Z,80
2018-05-10T16:28:30.434Z,75
2018-05-10T16:29:40.266Z,75
2018-05-10T16:30:50.372Z,75
2018-05-10T16:32:00.540Z,70
2018-05-10T16:33:10.374Z,70
2018-05-10T16:34:20.473Z,70
2018-05-10T16:35:30.558Z,65
2018-05-10T16:36:40.669Z,65
2018-05-10T16:37:50.740Z,65
2018-05-10T16:39:00.843Z,60
2018-05-10T16:40:10.716Z,60
2018-05-10T16:41:20.837Z,60
2018-05-10T16:42:30.912Z,55
2018-05-10T16:43:41.030Z,55
2018-05-10T16:44:51.145Z,55
2018-05-10T16:46:01.260Z,60
2018-05-10T16:47:11.098Z,55
2018-05-10T16:48:21.199Z,55
2018-05-10T16:49:31.309Z,50
2018-05-10T16:50:41.420Z,50